Time;durP1;ratioP1;P1;durP2;ratioP2;P2;SDS_P1;SDS_P2;PMS_P1;PMS_P2;Temp;Humidity;BMP_temperature;BMP_pressure;BME280_temperature;BME280_humidity;BME280_pressure;Samples;Min_cycle;Max_cycle;Signal;HPM_P1;HPM_P2
2022/01/22 00:01:02;;;;;;;5.07;2.10;;;;;;;0.08;52.01;100966.63;5356286;32;35026;-78
2022/01/22 00:04:05;;;;;;;5.32;2.05;;;;;;;-0.10;52.58;100963.78;5365386;32;34542;-68
2022/01/22 00:07:09;;;;;;;9.27;2.83;;;;;;;-0.21;52.28;100984.28;5358145;32;34742;-77
2022/01/22 00:10:23;;;;;;;6.43;2.60;;;;;;;-0.36;52.73;100984.94;5356577;32;44630;-67
2022/01/22 00:16:46;;;;;;;6.50;2.07;;;;;;;0.47;50.39;100963.63;5364428;32;42833;-67
2022/01/22 00:19:48;;;;;;;7.03;2.63;;;;;;;0.14;51.20;100960.66;5360684;32;35598;-66
2022/01/22 00:22:51;;;;;;;7.27;2.43;;;;;;;0.23;51.33;100958.16;5370356;32;34575;-76
2022/01/22 00:25:54;;;;;;;6.90;2.33;;;;;;;0.44;50.33;100960.13;5361743;32;34685;-68
2022/01/22 00:28:56;;;;;;;4.75;2.10;;;;;;;0.45;51.03;100957.59;5358120;32;36501;-67
2022/01/22 00:31:59;;;;;;;7.23;2.73;;;;;;;0.42;50.79;100967.00;5365626;32;34916;-76
2022/01/22 00:35:01;;;;;;;11.17;2.60;;;;;;;0.32;50.97;100947.91;5364250;32;35361;-67
2022/01/22 00:38:03;;;;;;;6.43;2.23;;;;;;;0.66;49.23;100937.97;5361255;32;34403;-76
2022/01/22 00:41:07;;;;;;;;;;;;;;;0.81;49.06;100938.09;5363348;32;36577;-77
2022/01/22 00:44:10;;;;;;;4.17;2.20;;;;;;;0.29;50.04;100932.37;5356162;32;36040;-68
2022/01/22 00:47:12;;;;;;;5.67;2.00;;;;;;;0.35;49.54;100935.03;5371807;32;34548;-68
2022/01/22 00:50:17;;;;;;;4.67;2.00;;;;;;;0.42;49.29;100931.66;5356523;32;34420;-68
2022/01/22 00:53:19;;;;;;;6.83;2.43;;;;;;;0.46;49.44;100928.28;5359307;32;44194;-77
2022/01/22 00:56:21;;;;;;;6.43;2.07;;;;;;;0.97;48.13;100927.03;5338617;32;34961;-68
2022/01/22 00:59:23;;;;;;;9.70;2.37;;;;;;;0.43;48.81;100932.53;5353127;32;36171;-77
2022/01/22 01:02:25;;;;;;;5.73;1.70;;;;;;;0.74;48.51;100923.38;5359521;32;35910;-76
2022/01/22 01:05:28;;;;;;;5.13;1.97;;;;;;;1.09;47.13;100921.06;5360960;32;36071;-69
2022/01/22 01:08:33;;;;;;;3.93;1.90;;;;;;;0.33;48.81;100910.03;5373685;32;34444;-66
2022/01/22 01:11:40;;;;;;;5.60;1.87;;;;;;;0.19;49.64;100897.81;5359217;32;34017;-66
2022/01/22 01:14:50;;;;;;;5.90;1.93;;;;;;;1.25;46.98;100881.50;5378605;32;34465;-77
2022/01/22 01:34:43;;;;;;;6.20;1.93;;;;;;;1.66;45.88;100843.72;5376349;32;34705;-77
2022/01/22 01:37:45;;;;;;;2.70;1.50;;;;;;;1.03;46.56;100825.25;5360437;32;35024;-67
2022/01/22 01:40:57;;;;;;;6.23;1.97;;;;;;;1.92;45.19;100829.16;5358340;32;43846;-76
2022/01/22 01:43:59;;;;;;;5.57;2.00;;;;;;;1.04;47.09;100812.34;5361023;32;34469;-67
2022/01/22 01:47:05;;;;;;;4.80;1.40;;;;;;;1.71;45.24;100780.72;5363325;32;34603;-76
2022/01/22 01:50:08;;;;;;;4.53;2.03;;;;;;;0.96;47.78;100788.09;5359675;32;35944;-67
2022/01/22 01:53:25;;;;;;;3.50;1.50;;;;;;;1.52;46.61;100776.31;5359369;32;36948;-77
2022/01/22 01:59:50;;;;;;;5.17;1.40;;;;;;;1.28;47.25;100764.12;5355356;32;46178;-76
2022/01/22 02:02:53;;;;;;;5.00;1.73;;;;;;;1.38;47.16;100747.78;5346758;32;35314;-69
2022/01/22 02:05:55;;;;;;;4.53;1.85;;;;;;;1.35;47.55;100742.56;5363544;32;35451;-69
2022/01/22 02:08:58;;;;;;;4.20;1.73;;;;;;;1.20;47.47;100745.09;5375268;32;34349;-67
2022/01/22 02:12:45;;;;;;;5.03;2.13;;;;;;;0.96;48.62;100728.56;5364196;32;35942;-68
2022/01/22 02:25:26;;;;;;;2.93;1.20;;;;;;;1.43;47.53;100730.53;5355874;32;35844;-77
2022/01/22 02:28:29;;;;;;;6.20;1.50;;;;;;;1.21;48.07;100715.75;5354874;32;34616;-76
2022/01/22 02:34:42;;;;;;;3.73;1.57;;;;;;;1.61;47.47;100709.88;5358620;32;35737;-76
2022/01/22 02:37:51;;;;;;;2.60;1.47;;;;;;;2.16;45.84;100690.91;5363909;32;35868;-78
2022/01/22 02:40:53;;;;;;;4.00;1.40;;;;;;;1.26;47.95;100696.78;5360539;32;44498;-67
2022/01/22 02:43:56;;;;;;;7.93;1.53;;;;;;;1.91;47.28;100687.44;5357266;32;35405;-76
2022/01/22 02:47:00;;;;;;;3.10;1.20;;;;;;;1.94;46.89;100696.97;5366154;32;36325;-66
2022/01/22 02:50:06;;;;;;;3.08;1.65;;;;;;;0.98;48.74;100695.81;5359693;32;35377;-68
2022/01/22 02:53:11;;;;;;;8.03;1.60;;;;;;;1.39;48.08;100695.13;5359979;32;36027;-68
2022/01/22 02:56:13;;;;;;;4.90;1.57;;;;;;;1.22;48.86;100699.34;5332001;32;35109;-69
2022/01/22 02:59:21;;;;;;;3.30;1.40;;;;;;;1.99;47.26;100697.81;5358611;32;34644;-78
2022/01/22 03:02:23;;;;;;;5.03;1.70;;;;;;;1.12;49.35;100698.47;5351089;32;46182;-67
2022/01/22 03:05:25;;;;;;;4.00;1.40;;;;;;;1.74;47.39;100699.50;5363891;32;34080;-67
2022/01/22 03:08:29;;;;;;;3.70;1.57;;;;;;;1.39;47.71;100687.34;5358691;32;35762;-67
2022/01/22 03:11:41;;;;;;;4.25;1.40;;;;;;;0.99;49.01;100678.56;5359449;32;35772;-69
2022/01/22 03:21:29;;;;;;;3.37;1.25;;;;;;;1.68;47.70;100689.16;5357121;32;34534;-77
2022/01/22 03:27:52;;;;;;;4.70;1.60;;;;;;;0.74;49.63;100680.16;5356002;32;44352;-75
2022/01/22 03:30:54;;;;;;;6.57;1.30;;;;;;;0.90;50.26;100687.16;5363901;32;34578;-76
2022/01/22 03:33:56;;;;;;;3.07;1.20;;;;;;;1.44;48.76;100685.63;5364755;32;34478;-67
2022/01/22 03:36:59;;;;;;;6.90;1.70;;;;;;;1.84;47.73;100673.63;5354987;32;35698;-67
2022/01/22 03:40:01;;;;;;;3.43;1.63;;;;;;;2.45;46.29;100654.59;5372867;32;34584;-76
2022/01/22 03:43:03;;;;;;;1.67;0.93;;;;;;;2.64;45.75;100651.09;5363406;32;34637;-68
2022/01/22 03:46:05;;;;;;;3.53;1.00;;;;;;;1.93;48.53;100664.97;5364201;32;35832;-68
2022/01/22 03:49:10;;;;;;;2.93;1.20;;;;;;;1.79;49.77;100666.69;5365183;32;36095;-78
2022/01/22 03:52:12;;;;;;;5.23;1.37;;;;;;;1.48;53.04;100661.47;5362921;32;34656;-79
2022/01/22 03:55:34;;;;;;;6.07;1.53;;;;;;;0.80;57.31;100664.69;5349164;32;34642;-67
2022/01/22 03:58:39;;;;;;;2.83;1.13;;;;;;;1.33;56.48;100653.66;5363061;32;34855;-70
2022/01/22 04:05:01;;;;;;;5.43;1.30;;;;;;;0.65;56.05;100633.56;5361229;32;34771;-67
2022/01/22 04:08:21;;;;;;;2.50;1.00;;;;;;;1.30;54.32;100620.84;5364799;32;35710;-71
2022/01/22 04:11:24;;;;;;;3.10;1.50;;;;;;;0.98;55.00;100623.34;5356071;32;44241;-67
2022/01/22 04:14:31;;;;;;;4.07;1.43;;;;;;;0.87;55.46;100608.62;5356161;32;35988;-77
2022/01/22 04:27:23;;;;;;;5.20;1.70;;;;;;;0.80;59.65;100605.16;5363820;32;44146;-69
2022/01/22 04:30:28;;;;;;;2.93;1.50;;;;;;;1.16;60.33;100600.94;5365300;32;35686;-78
2022/01/22 04:33:30;;;;;;;5.17;1.60;;;;;;;1.24;61.39;100604.44;5362110;32;34779;-76
2022/01/22 04:36:32;;;;;;;4.80;2.03;;;;;;;1.28;61.84;100595.81;5355433;32;34598;-69
2022/01/22 04:39:36;;;;;;;6.07;1.90;;;;;;;1.43;62.55;100601.03;5366132;32;35924;-78
2022/01/22 04:42:40;;;;;;;4.60;1.87;;;;;;;0.97;65.98;100600.94;5354407;32;35928;-67
2022/01/22 04:45:51;;;;;;;4.30;1.80;;;;;;;0.93;67.21;100611.25;5367109;32;34528;-67
2022/01/22 04:49:11;;;;;;;5.43;2.13;;;;;;;0.80;68.77;100610.34;5359020;32;46166;-66
2022/01/22 04:55:31;;;;;;;8.53;3.17;;;;;;;1.17;70.03;100613.06;5341908;32;34699;-69
2022/01/22 04:58:33;;;;;;;5.30;1.90;;;;;;;0.70;71.86;100598.19;5348190;32;34610;-78
2022/01/22 05:01:35;;;;;;;6.20;1.97;;;;;;;1.04;71.22;100594.91;5355333;32;34389;-78
2022/01/22 05:04:38;;;;;;;7.20;2.30;;;;;;;0.40;74.41;100606.69;5363202;32;35257;-77
2022/01/22 05:07:40;;;;;;;4.73;2.43;;;;;;;0.32;74.27;100605.75;5365837;32;36117;-77
2022/01/22 05:10:42;;;;;;;8.67;2.40;;;;;;;0.36;75.22;100589.41;5360558;32;35648;-76
2022/01/22 05:13:44;;;;;;;5.17;2.70;;;;;;;0.04;76.32;100594.38;5360370;32;34543;-76
2022/01/22 05:16:46;;;;;;;9.13;3.30;;;;;;;-0.41;77.95;100596.63;5367481;32;42344;-68
2022/01/22 05:19:58;;;;;;;5.47;2.43;;;;;;;-0.15;78.94;100596.84;5364090;32;35849;-77
2022/01/22 05:23:08;;;;;;;6.40;2.33;;;;;;;0.20;76.84;100593.66;5359994;32;35774;-78
2022/01/22 05:26:29;;;;;;;9.57;2.97;;;;;;;0.09;78.31;100584.97;5363934;32;35902;-77
2022/01/22 05:32:59;;;;;;;7.03;2.70;;;;;;;-0.36;80.23;100604.41;5358602;32;35857;-67
2022/01/22 05:39:24;;;;;;;7.73;2.20;;;;;;;0.14;79.72;100594.47;5374443;32;46042;-67
2022/01/22 05:42:26;;;;;;;5.87;2.50;;;;;;;0.08;79.77;100580.66;5355839;32;34499;-67
2022/01/22 05:45:28;;;;;;;10.17;2.73;;;;;;;0.35;77.69;100592.87;5364577;32;36222;-77
2022/01/22 05:48:30;;;;;;;4.70;2.30;;;;;;;0.68;76.79;100587.00;5360502;32;35068;-76
2022/01/22 05:51:33;;;;;;;5.17;2.50;;;;;;;-0.30;80.90;100591.56;5364260;32;34752;-76
2022/01/22 06:01:12;;;;;;;5.23;2.23;;;;;;;-0.07;82.35;100574.50;5354921;32;36152;-77
2022/01/22 06:04:15;;;;;;;7.97;2.75;;;;;;;0.06;80.77;100574.59;5356836;32;34692;-67
2022/01/22 06:07:17;;;;;;;4.63;2.07;;;;;;;0.25;79.46;100566.94;5354670;32;47580;-69
2022/01/22 06:10:26;;;;;;;3.10;1.67;;;;;;;0.57;79.59;100579.19;5361760;32;34479;-67
2022/01/22 06:13:43;;;;;;;3.43;1.90;;;;;;;1.17;76.54;100571.63;5365063;32;33863;-68
2022/01/22 06:16:45;;;;;;;3.30;1.93;;;;;;;1.14;75.54;100567.28;5365158;32;35412;-77
2022/01/22 06:19:47;;;;;;;3.60;2.10;;;;;;;0.51;76.46;100582.59;5359161;32;44488;-67
2022/01/22 06:22:49;;;;;;;3.93;2.37;;;;;;;0.95;76.14;100568.97;5357287;32;34565;-76
2022/01/22 06:25:52;;;;;;;4.60;2.20;;;;;;;0.86;73.44;100566.37;5363721;32;34537;-76
2022/01/22 06:28:54;;;;;;;3.90;1.90;;;;;;;1.25;71.57;100577.69;5364583;32;35775;-76
2022/01/22 06:31:56;;;;;;;4.17;2.00;;;;;;;1.23;70.87;100577.69;5367130;32;34543;-78
2022/01/22 06:34:58;;;;;;;4.10;1.93;;;;;;;1.59;70.20;100589.81;5355121;32;36221;-75
2022/01/22 06:38:02;;;;;;;3.77;1.73;;;;;;;1.61;69.76;100598.47;5359423;32;35758;-76
2022/01/22 06:44:26;;;;;;;4.10;1.90;;;;;;;2.40;65.22;100610.50;5355371;32;37643;-77
2022/01/22 06:47:29;;;;;;;4.10;2.10;;;;;;;2.85;63.76;100607.75;5360358;32;37007;-75
2022/01/22 06:50:31;;;;;;;6.28;2.60;;;;;;;3.05;63.79;100608.53;5362719;32;34695;-77
2022/01/22 06:53:36;;;;;;;4.50;2.30;;;;;;;3.25;63.63;100626.59;5377553;32;36603;-77
2022/01/22 06:56:39;;;;;;;5.40;2.67;;;;;;;3.60;63.33;100623.78;5335642;32;34508;-76
2022/01/22 06:59:41;;;;;;;38.37;3.40;;;;;;;3.38;64.80;100619.59;5352545;32;34717;-75
2022/01/22 07:02:49;;;;;;;6.40;3.03;;;;;;;3.33;65.32;100627.41;5350750;32;44484;-68
2022/01/22 07:05:51;;;;;;;10.77;4.10;;;;;;;3.18;65.36;100633.56;5351298;32;34743;-68
2022/01/22 07:08:54;;;;;;;8.65;3.45;;;;;;;2.21;69.09;100637.31;5366275;32;35857;-78
2022/01/22 07:11:57;;;;;;;6.30;2.53;;;;;;;2.14;69.93;100635.59;5359029;32;34824;-69
2022/01/22 07:14:59;;;;;;;3.83;1.67;;;;;;;3.07;63.96;100645.72;5369907;32;35915;-68
2022/01/22 07:18:03;;;;;;;3.15;1.65;;;;;;;2.33;64.96;100652.00;5363418;32;35754;-69
2022/01/22 07:21:20;;;;;;;2.67;1.30;;;;;;;1.51;68.51;100643.34;5363720;32;34433;-69
2022/01/22 07:24:23;;;;;;;3.47;1.57;;;;;;;2.95;63.85;100633.66;5367604;32;44545;-68
2022/01/22 07:27:25;;;;;;;3.63;1.60;;;;;;;2.39;64.16;100619.16;5366200;32;35710;-77
2022/01/22 07:30:27;;;;;;;3.37;1.80;;;;;;;2.44;65.38;100639.88;5354708;32;34685;-67
2022/01/22 07:33:29;;;;;;;3.17;1.70;;;;;;;3.02;63.39;100637.09;5375853;32;34535;-78
2022/01/22 07:36:32;;;;;;;3.50;1.60;;;;;;;2.43;65.22;100630.37;5342917;32;34561;-68
2022/01/22 07:39:35;;;;;;;4.23;2.00;;;;;;;2.85;63.36;100629.38;5357170;32;38349;-68
2022/01/22 07:42:39;;;;;;;3.55;1.85;;;;;;;1.80;65.82;100632.12;5361579;32;34533;-77
2022/01/22 07:45:43;;;;;;;3.10;1.70;;;;;;;2.97;62.30;100629.34;5353966;32;34667;-77
2022/01/22 07:48:45;;;;;;;4.50;1.90;;;;;;;2.99;61.78;100645.78;5351484;32;34571;-77
2022/01/22 07:51:47;;;;;;;3.77;1.60;;;;;;;2.62;63.10;100647.63;5367254;32;46652;-76
2022/01/22 07:54:50;;;;;;;5.27;1.53;;;;;;;2.69;61.41;100638.94;5356220;32;34699;-67
2022/01/22 07:57:52;;;;;;;5.20;2.27;;;;;;;3.22;59.59;100642.19;5351939;32;34460;-76
2022/01/22 08:00:54;;;;;;;4.17;2.13;;;;;;;2.92;60.94;100645.81;5355796;32;34426;-68
2022/01/22 08:03:57;;;;;;;9.67;1.97;;;;;;;2.10;63.07;100639.06;5356585;32;33954;-68
2022/01/22 08:07:00;;;;;;;4.60;1.60;;;;;;;1.64;64.48;100657.19;5370199;32;36166;-79
2022/01/22 08:10:04;;;;;;;5.25;2.20;;;;;;;1.58;66.36;100670.97;5352141;32;33650;-69
2022/01/22 08:13:06;;;;;;;3.92;1.87;;;;;;;1.10;68.53;100673.44;5366302;32;35978;-67
2022/01/22 08:16:09;;;;;;;3.33;1.90;;;;;;;1.74;66.09;100669.31;5364868;32;34774;-68
2022/01/22 08:19:11;;;;;;;5.28;2.58;;;;;;;1.42;67.18;100669.25;5362684;32;34562;-78
2022/01/22 08:22:14;;;;;;;3.63;1.90;;;;;;;1.90;66.29;100662.41;5370362;32;35777;-77
2022/01/22 08:25:17;;;;;;;7.23;2.90;;;;;;;1.16;68.31;100674.34;5341705;32;44305;-78
2022/01/22 08:38:30;;;;;;;4.13;2.50;;;;;;;1.05;68.09;100660.47;5365623;32;34719;-69
2022/01/22 08:41:33;;;;;;;5.50;2.58;;;;;;;1.32;67.35;100667.47;5361568;32;34377;-68
2022/01/22 08:44:36;;;;;;;5.40;2.40;;;;;;;1.35;67.02;100695.94;5360925;32;34625;-76
2022/01/22 08:47:39;;;;;;;6.87;2.80;;;;;;;1.33;68.14;100701.13;5362748;32;34763;-77
2022/01/22 08:50:41;;;;;;;7.07;3.15;;;;;;;1.89;64.23;100702.13;5364308;32;36031;-76
2022/01/22 08:53:44;;;;;;;4.47;2.40;;;;;;;1.53;64.60;100701.19;5361474;32;34894;-77
2022/01/22 08:56:46;;;;;;;5.90;2.83;;;;;;;2.38;62.51;100704.72;5337389;32;43326;-69
2022/01/22 08:59:48;;;;;;;6.63;2.90;;;;;;;3.01;60.68;100713.28;5358282;32;34453;-78
2022/01/22 09:02:52;;;;;;;9.23;3.00;;;;;;;2.42;61.16;100709.06;5353695;32;34657;-77
2022/01/22 09:05:55;;;;;;;5.43;2.80;;;;;;;2.73;59.44;100712.50;5361746;32;34517;-67
2022/01/22 09:09:18;;;;;;;7.37;2.97;;;;;;;2.33;60.64;100716.88;5364722;32;34584;-77
2022/01/22 09:12:20;;;;;;;6.73;2.40;;;;;;;3.15;58.13;100721.00;5362559;32;44481;-79
2022/01/22 09:15:22;;;;;;;4.43;2.00;;;;;;;2.96;55.33;100731.47;5365568;32;34620;-67
2022/01/22 09:18:24;;;;;;;3.63;1.90;;;;;;;3.26;52.00;100733.09;5364452;32;34524;-68
2022/01/22 09:21:26;;;;;;;5.30;2.10;;;;;;;2.77;52.53;100741.87;5368614;32;35943;-77
2022/01/22 09:24:29;;;;;;;3.30;1.63;;;;;;;2.35;51.72;100749.72;5363719;32;35535;-76
2022/01/22 09:27:32;;;;;;;3.45;1.75;;;;;;;2.79;50.69;100748.81;5360857;32;34541;-67
2022/01/22 09:30:34;;;;;;;3.07;1.60;;;;;;;2.39;51.02;100767.00;5362458;32;35860;-67
2022/01/22 09:33:38;;;;;;;5.23;2.00;;;;;;;2.32;52.91;100756.59;5365578;32;34596;-67
2022/01/22 09:36:44;;;;;;;4.17;1.80;;;;;;;2.73;50.96;100759.22;5366316;32;34086;-68
2022/01/22 09:39:47;;;;;;;6.43;2.17;;;;;;;3.56;48.87;100765.03;5363567;32;44766;-68
2022/01/22 09:42:49;;;;;;;7.27;2.53;;;;;;;2.63;50.70;100768.72;5359857;32;35912;-69
2022/01/22 09:45:51;;;;;;;4.90;1.93;;;;;;;3.16;49.50;100775.56;5360726;32;36264;-78
2022/01/22 09:48:54;;;;;;;4.47;1.70;;;;;;;2.50;50.23;100771.31;5366727;32;36009;-68
2022/01/22 09:51:57;;;;;;;3.03;1.50;;;;;;;3.35;47.99;100762.50;5348910;32;34639;-68
2022/01/22 09:55:00;;;;;;;3.27;1.60;;;;;;;2.86;49.85;100770.44;5356394;32;34783;-77
2022/01/22 09:58:03;;;;;;;5.13;1.90;;;;;;;2.78;49.47;100765.25;5350769;32;35885;-77
2022/01/22 10:01:30;;;;;;;5.27;1.80;;;;;;;2.86;48.59;100760.06;5357487;32;34633;-68
2022/01/22 10:04:42;;;;;;;4.73;2.17;;;;;;;3.10;48.63;100757.41;5354181;32;34740;-67
2022/01/22 10:07:51;;;;;;;2.57;1.47;;;;;;;2.99;48.40;100756.56;5362396;32;36134;-77
2022/01/22 10:10:54;;;;;;;3.53;1.60;;;;;;;2.94;47.72;100768.69;5358950;32;44731;-77
2022/01/22 10:13:58;;;;;;;3.57;1.40;;;;;;;3.21;47.26;100771.22;5367461;32;38635;-68
2022/01/22 10:17:00;;;;;;;6.82;2.20;;;;;;;3.15;47.03;100765.16;5354367;32;34465;-68
2022/01/22 10:20:02;;;;;;;6.07;1.90;;;;;;;3.40;47.16;100778.94;5368231;32;34421;-68
2022/01/22 10:23:15;;;;;;;3.67;1.60;;;;;;;3.42;45.78;100779.81;5360775;32;34643;-68
2022/01/22 10:26:20;;;;;;;2.80;1.47;;;;;;;3.30;45.11;100782.47;5362003;32;44570;-68
2022/01/22 10:29:23;;;;;;;3.97;1.73;;;;;;;2.99;45.27;100778.19;5365314;32;34540;-68
2022/01/22 10:32:38;;;;;;;4.23;1.70;;;;;;;3.61;43.90;100788.41;5368211;32;34849;-68
2022/01/22 10:35:40;;;;;;;3.03;1.50;;;;;;;5.72;40.29;100774.41;5366323;32;36327;-76
2022/01/22 10:38:52;;;;;;;3.87;1.70;;;;;;;8.18;35.33;100764.78;5371508;32;44131;-77
2022/01/22 10:41:54;;;;;;;3.05;1.87;;;;;;;11.40;29.89;100754.31;5365914;32;36035;-68
2022/01/22 10:44:59;;;;;;;4.50;1.80;;;;;;;12.51;27.09;100754.41;5363995;32;35478;-78
2022/01/22 10:48:21;;;;;;;3.00;1.60;;;;;;;11.07;28.66;100757.22;5361211;32;34630;-68
2022/01/22 10:51:24;;;;;;;2.83;1.57;;;;;;;9.09;30.30;100773.91;5368164;32;44184;-76
2022/01/22 10:54:28;;;;;;;;;;;;;;;8.23;33.02;100782.97;5361650;32;35642;-76
2022/01/22 10:57:30;;;;;;;4.53;1.87;;;;;;;9.85;29.47;100762.97;5344378;32;36020;-77
2022/01/22 11:00:33;;;;;;;5.00;1.90;;;;;;;9.34;30.06;100774.94;5355586;32;35749;-78
2022/01/22 11:03:36;;;;;;;3.92;1.90;;;;;;;6.36;34.30;100786.56;5351715;32;34702;-78
2022/01/22 11:06:45;;;;;;;2.70;1.87;;;;;;;4.95;36.18;100802.22;5369691;32;35183;-77
2022/01/22 11:09:50;;;;;;;5.57;1.80;;;;;;;5.31;35.49;100796.66;5373650;32;44393;-79
2022/01/22 11:12:52;;;;;;;2.70;1.50;;;;;;;6.09;34.67;100798.28;5375865;32;35205;-68
2022/01/22 11:15:54;;;;;;;5.67;2.20;;;;;;;5.57;35.95;100792.87;5359907;32;34457;-79
2022/01/22 11:18:57;;;;;;;3.97;1.80;;;;;;;6.39;35.75;100797.00;5367999;32;34747;-68
2022/01/22 11:22:03;;;;;;;9.77;2.10;;;;;;;5.61;36.90;100805.00;5358791;32;34432;-68
2022/01/22 11:25:07;;;;;;;4.43;1.50;;;;;;;6.08;35.81;100812.22;5361036;32;36587;-77
2022/01/22 11:28:09;;;;;;;17.25;2.10;;;;;;;6.30;35.90;100812.78;5367604;32;36126;-68
2022/01/22 11:31:17;;;;;;;2.70;1.73;;;;;;;6.60;35.55;100807.97;5363865;32;45100;-71
2022/01/22 11:34:23;;;;;;;4.72;2.08;;;;;;;4.55;37.82;100824.25;5373981;32;37629;-68
2022/01/22 11:37:38;;;;;;;10.80;2.00;;;;;;;4.29;38.93;100831.38;5363317;32;36521;-77
2022/01/22 11:40:40;;;;;;;5.60;1.60;;;;;;;3.97;38.86;100821.16;5361880;32;34577;-67
2022/01/22 11:47:15;;;;;;;7.93;1.53;;;;;;;5.14;36.82;100819.41;5362818;32;35943;-69
2022/01/22 11:50:22;;;;;;;2.78;1.20;;;;;;;4.67;36.57;100823.31;5373916;32;47212;-77
2022/01/22 11:53:37;;;;;;;6.73;2.13;;;;;;;4.63;37.20;100839.81;5362966;32;34496;-78
2022/01/22 11:56:45;;;;;;;5.27;1.87;;;;;;;4.47;37.95;100848.62;5339984;32;35989;-67
2022/01/22 11:59:47;;;;;;;9.80;1.63;;;;;;;4.44;37.82;100861.66;5365249;32;44593;-79
2022/01/22 12:03:07;;;;;;;4.47;1.83;;;;;;;5.15;37.08;100853.28;5344521;32;35948;-76
2022/01/22 12:06:30;;;;;;;10.47;1.70;;;;;;;3.94;38.82;100855.88;5366844;32;34904;-68
2022/01/22 12:09:53;;;;;;;6.87;1.73;;;;;;;4.90;37.35;100856.97;5358938;32;35162;-68
2022/01/22 12:16:47;;;;;;;4.87;1.80;;;;;;;4.86;35.64;100856.12;5364463;32;34857;-78
2022/01/22 12:23:01;;;;;;;7.73;2.00;;;;;;;5.66;34.69;100850.97;5363480;32;34521;-68
2022/01/22 12:26:03;;;;;;;6.73;1.80;;;;;;;5.89;34.34;100836.81;5361977;32;36571;-68
2022/01/22 12:29:32;;;;;;;4.57;1.50;;;;;;;6.91;31.71;100837.94;5364162;32;34745;-79
2022/01/22 12:32:45;;;;;;;7.73;1.57;;;;;;;5.28;33.40;100848.81;5366376;32;34700;-68
2022/01/22 12:35:48;;;;;;;4.63;1.60;;;;;;;5.39;34.11;100840.87;5358309;32;44681;-68
2022/01/22 12:39:05;;;;;;;4.30;1.42;;;;;;;5.92;33.41;100842.00;5362808;32;34736;-78
2022/01/22 12:42:11;;;;;;;4.63;1.77;;;;;;;5.62;33.59;100845.84;5361667;32;35764;-67
2022/01/22 12:45:14;;;;;;;6.00;1.90;;;;;;;4.81;34.46;100852.69;5359562;32;34780;-68
2022/01/22 12:48:16;;;;;;;4.53;1.43;;;;;;;4.20;35.99;100866.12;5363034;32;44927;-68
2022/01/22 12:51:25;;;;;;;7.30;1.77;;;;;;;5.75;33.97;100851.78;5363236;32;34416;-68
2022/01/22 12:54:31;;;;;;;3.47;1.50;;;;;;;5.31;33.96;100853.13;5362240;32;34396;-77
2022/01/22 12:57:41;;;;;;;9.30;1.77;;;;;;;4.49;34.88;100863.34;5344404;32;37789;-67
2022/01/22 13:00:43;;;;;;;2.60;1.33;;;;;;;5.08;33.43;100864.63;5349196;32;36091;-67
2022/01/22 13:03:49;;;;;;;5.50;1.70;;;;;;;4.73;33.64;100870.13;5357743;32;34578;-76
2022/01/22 13:06:53;;;;;;;6.13;2.30;;;;;;;3.82;35.39;100876.72;5358621;32;44477;-68
2022/01/22 13:09:58;;;;;;;11.30;1.70;;;;;;;3.70;35.42;100881.94;5361117;32;34730;-77
2022/01/22 13:13:01;;;;;;;4.53;1.50;;;;;;;3.73;34.77;100867.19;5370819;32;34490;-68
2022/01/22 13:16:04;;;;;;;5.15;1.50;;;;;;;3.83;34.68;100872.38;5358365;32;35899;-68
2022/01/22 13:19:07;;;;;;;14.85;3.60;;;;;;;3.98;33.54;100869.69;5376246;32;36069;-77
2022/01/22 13:22:09;;;;;;;3.70;1.70;;;;;;;4.20;33.70;100883.50;5360412;32;35899;-78
2022/01/22 13:25:13;;;;;;;4.37;1.80;;;;;;;4.44;33.21;100893.75;5363249;32;34753;-69
2022/01/22 13:28:16;;;;;;;3.90;1.60;;;;;;;4.93;33.49;100901.22;5349802;32;35954;-68
2022/01/22 13:31:18;;;;;;;4.77;2.03;;;;;;;5.38;34.31;100896.50;5364084;32;44779;-76
2022/01/22 13:34:31;;;;;;;10.30;1.60;;;;;;;6.28;31.99;100895.47;5359841;32;34361;-78
2022/01/22 13:48:03;;;;;;;4.07;1.70;;;;;;;6.36;29.90;100935.41;5362189;32;36537;-77
2022/01/22 13:51:27;;;;;;;9.10;2.23;;;;;;;6.28;30.21;100939.00;5360888;32;44842;-77
2022/01/22 13:54:32;;;;;;;4.18;1.77;;;;;;;6.16;29.96;100940.00;5360741;32;33171;-68
2022/01/22 13:57:37;;;;;;;5.77;2.23;;;;;;;5.33;30.95;100951.25;5339398;32;35381;-77
2022/01/22 14:00:39;;;;;;;5.40;2.03;;;;;;;4.98;32.05;100953.31;5357379;32;34315;-69
2022/01/22 14:04:05;;;;;;;4.47;1.50;;;;;;;5.13;31.95;100959.25;5354950;32;35431;-68
2022/01/22 14:07:16;;;;;;;6.37;1.90;;;;;;;5.67;30.57;100958.81;5357406;32;36378;-77
2022/01/22 14:10:20;;;;;;;5.80;2.07;;;;;;;5.70;30.92;100969.19;5348006;32;43580;-78
2022/01/22 14:13:22;;;;;;;4.03;1.60;;;;;;;6.02;29.56;100974.09;5366970;32;36011;-76
2022/01/22 14:16:25;;;;;;;3.63;1.80;;;;;;;4.40;32.15;100982.28;5362193;32;34812;-78
2022/01/22 14:19:29;;;;;;;5.57;1.93;;;;;;;3.74;33.10;101004.16;5367105;32;35792;-78
2022/01/22 14:22:54;;;;;;;3.33;1.73;;;;;;;4.11;33.33;101001.44;5368862;32;34592;-68
2022/01/22 14:26:04;;;;;;;5.87;1.97;;;;;;;3.58;34.05;101024.94;5348742;32;34843;-78
2022/01/22 14:29:12;;;;;;;4.20;1.33;;;;;;;3.80;33.89;101034.47;5367637;32;35918;-68
2022/01/22 14:32:19;;;;;;;10.90;2.03;;;;;;;2.90;35.39;101052.59;5353039;32;44976;-77
2022/01/22 14:35:22;;;;;;;4.47;1.80;;;;;;;3.66;34.51;101057.84;5367492;32;36175;-69
2022/01/22 14:38:56;;;;;;;8.37;2.23;;;;;;;2.69;36.22;101072.41;5363434;32;34572;-78
2022/01/22 14:45:22;;;;;;;6.53;2.40;;;;;;;2.99;36.01;101075.97;5367069;32;44400;-68
2022/01/22 14:48:26;;;;;;;5.33;2.13;;;;;;;3.16;35.98;101074.28;5359862;32;35847;-68
2022/01/22 14:51:29;;;;;;;6.07;2.20;;;;;;;2.69;36.90;101076.72;5362949;32;36496;-67
2022/01/22 14:54:34;;;;;;;8.03;2.60;;;;;;;3.23;36.07;101078.63;5367958;32;34625;-78
2022/01/22 14:57:38;;;;;;;6.23;2.20;;;;;;;2.41;37.70;101088.72;5341185;32;35824;-68
2022/01/22 15:00:40;;;;;;;;;;;;;;;2.71;37.90;101093.19;5345374;32;35966;-69
2022/01/22 15:03:42;;;;;;;4.90;2.10;;;;;;;2.75;37.24;101096.66;5353405;32;34741;-78
2022/01/22 15:06:44;;;;;;;6.33;2.30;;;;;;;2.67;37.50;101112.19;5360496;32;34502;-79
2022/01/22 15:09:47;;;;;;;7.40;2.53;;;;;;;2.85;37.15;101121.81;5361260;32;47186;-77
2022/01/22 15:12:50;;;;;;;13.67;3.20;;;;;;;2.49;38.10;101128.53;5360373;32;34552;-78
2022/01/22 15:16:08;;;;;;;5.97;2.23;;;;;;;2.74;37.44;101128.66;5364331;32;34508;-68
2022/01/22 15:19:14;;;;;;;6.65;2.53;;;;;;;2.62;37.89;101140.72;5361487;32;34603;-68
2022/01/22 15:22:17;;;;;;;6.80;2.83;;;;;;;3.44;36.53;101134.09;5343241;32;43287;-77
2022/01/22 15:25:20;;;;;;;6.18;2.40;;;;;;;2.92;37.41;101146.94;5352430;32;35839;-68
2022/01/22 15:28:24;;;;;;;7.73;2.33;;;;;;;2.07;38.49;101157.66;5374655;32;36262;-69
2022/01/22 15:34:57;;;;;;;10.20;2.40;;;;;;;2.23;38.39;101176.78;5360704;32;46492;-77
2022/01/22 15:38:01;;;;;;;8.77;2.17;;;;;;;2.30;38.88;101168.19;5366102;32;34558;-68
2022/01/22 15:41:03;;;;;;;;;;;;;;;2.51;38.05;101176.09;5363868;32;35060;-68
2022/01/22 15:44:08;;;;;;;17.47;2.83;;;;;;;2.31;38.50;101188.09;5361811;32;35248;-78
2022/01/22 15:47:11;;;;;;;5.43;2.23;;;;;;;2.60;38.54;101188.28;5355907;32;34552;-78
2022/01/22 15:50:13;;;;;;;4.65;1.95;;;;;;;1.61;40.12;101196.09;5354801;32;35955;-78
2022/01/22 15:53:35;;;;;;;5.87;2.13;;;;;;;1.76;39.63;101193.69;5368035;32;34844;-77
2022/01/22 15:56:39;;;;;;;13.00;3.00;;;;;;;1.81;39.28;101212.75;5313920;32;36293;-68
2022/01/22 15:59:42;;;;;;;6.68;2.05;;;;;;;1.56;39.87;101214.22;5361473;32;34442;-68
2022/01/22 16:02:45;;;;;;;6.80;1.90;;;;;;;1.53;39.57;101221.06;5356258;32;35931;-78
2022/01/22 16:05:48;;;;;;;;;;;;;;;1.42;39.32;101233.91;5355029;32;46544;-71
2022/01/22 16:08:50;;;;;;;6.93;1.70;;;;;;;1.28;39.28;101243.22;5367652;32;34785;-68
2022/01/22 16:12:12;;;;;;;5.47;1.70;;;;;;;1.98;37.45;101248.31;5344821;32;36491;-66
2022/01/22 16:15:21;;;;;;;6.90;2.00;;;;;;;1.58;38.02;101253.94;5368825;32;42545;-67
2022/01/22 16:18:24;;;;;;;3.90;1.90;;;;;;;1.61;37.91;101264.37;5363964;32;36002;-67
2022/01/22 16:21:26;;;;;;;5.80;2.00;;;;;;;1.07;38.79;101283.53;5365713;32;34627;-77
2022/01/22 16:24:28;;;;;;;3.93;1.90;;;;;;;1.26;38.46;101284.66;5373339;32;37486;-68
2022/01/22 16:27:32;;;;;;;4.57;1.90;;;;;;;0.77;39.62;101293.41;5361863;32;35363;-77
2022/01/22 16:30:35;;;;;;;8.13;2.80;;;;;;;1.38;38.86;101296.03;5367897;32;35904;-79